sensor_id;sensor_type;location;lat;lon;timestamp;pressure;altitude;pressure_sealevel;temperature;humidity
60244;BME280;46106;51.468;5.814;2023-12-14T00:00:12;100507.84;;;7.04;100.00
60244;BME280;46106;51.468;5.814;2023-12-14T00:02:38;100510.56;;;7.04;100.00
60244;BME280;46106;51.468;5.814;2023-12-14T00:05:03;100514.25;;;7.03;100.00
60244;BME280;46106;51.468;5.814;2023-12-14T00:07:29;100528.41;;;7.08;100.00
60244;BME280;46106;51.468;5.814;2023-12-14T00:09:54;100532.44;;;6.89;100.00
60244;BME280;46106;51.468;5.814;2023-12-14T00:12:20;100525.66;;;6.95;100.00
60244;BME280;46106;51.468;5.814;2023-12-14T00:14:45;100543.31;;;6.89;100.00
60244;BME280;46106;51.468;5.814;2023-12-14T00:17:11;100549.16;;;6.83;100.00
60244;BME280;46106;51.468;5.814;2023-12-14T00:19:36;100551.78;;;6.85;100.00
60244;BME280;46106;51.468;5.814;2023-12-14T00:22:01;100552.41;;;6.75;100.00
60244;BME280;46106;51.468;5.814;2023-12-14T00:24:27;100552.09;;;6.80;100.00
60244;BME280;46106;51.468;5.814;2023-12-14T00:26:52;100559.41;;;6.79;100.00
60244;BME280;46106;51.468;5.814;2023-12-14T00:29:18;100555.03;;;6.77;100.00
60244;BME280;46106;51.468;5.814;2023-12-14T00:31:43;100564.84;;;6.79;100.00
60244;BME280;46106;51.468;5.814;2023-12-14T00:34:09;100570.28;;;6.79;100.00
60244;BME280;46106;51.468;5.814;2023-12-14T00:36:35;100584.09;;;6.76;100.00
60244;BME280;46106;51.468;5.814;2023-12-14T00:39:01;100579.63;;;6.75;100.00
60244;BME280;46106;51.468;5.814;2023-12-14T00:41:28;100593.66;;;6.69;100.00
60244;BME280;46106;51.468;5.814;2023-12-14T00:43:53;100595.81;;;6.64;100.00
60244;BME280;46106;51.468;5.814;2023-12-14T00:46:19;100603.28;;;6.60;100.00
60244;BME280;46106;51.468;5.814;2023-12-14T00:48:44;100614.16;;;6.60;100.00
60244;BME280;46106;51.468;5.814;2023-12-14T00:51:10;100619.25;;;6.52;100.00
60244;BME280;46106;51.468;5.814;2023-12-14T00:53:35;100631.97;;;6.52;100.00
60244;BME280;46106;51.468;5.814;2023-12-14T00:56:00;100633.50;;;6.56;100.00
60244;BME280;46106;51.468;5.814;2023-12-14T00:58:26;100646.16;;;6.57;100.00
60244;BME280;46106;51.468;5.814;2023-12-14T01:00:54;100650.16;;;6.51;100.00
60244;BME280;46106;51.468;5.814;2023-12-14T01:03:20;100655.50;;;6.53;100.00
60244;BME280;46106;51.468;5.814;2023-12-14T01:05:46;100663.28;;;6.44;100.00
60244;BME280;46106;51.468;5.814;2023-12-14T01:08:11;100663.38;;;6.43;100.00
60244;BME280;46106;51.468;5.814;2023-12-14T01:10:38;100667.81;;;6.44;100.00
60244;BME280;46106;51.468;5.814;2023-12-14T01:13:04;100665.78;;;6.48;100.00
60244;BME280;46106;51.468;5.814;2023-12-14T01:15:29;100670.06;;;6.52;100.00
60244;BME280;46106;51.468;5.814;2023-12-14T01:17:54;100666.56;;;6.50;100.00
60244;BME280;46106;51.468;5.814;2023-12-14T01:20:20;100674.06;;;6.46;100.00
60244;BME280;46106;51.468;5.814;2023-12-14T01:22:45;100671.22;;;6.48;100.00
60244;BME280;46106;51.468;5.814;2023-12-14T01:25:11;100676.09;;;6.42;100.00
60244;BME280;46106;51.468;5.814;2023-12-14T01:27:37;100682.41;;;6.43;100.00
60244;BME280;46106;51.468;5.814;2023-12-14T01:30:02;100683.66;;;6.37;100.00
60244;BME280;46106;51.468;5.814;2023-12-14T01:32:29;100682.53;;;6.27;100.00
60244;BME280;46106;51.468;5.814;2023-12-14T01:34:55;100692.03;;;6.34;100.00
60244;BME280;46106;51.468;5.814;2023-12-14T01:37:21;100692.06;;;6.20;100.00
60244;BME280;46106;51.468;5.814;2023-12-14T01:39:47;100698.34;;;6.20;100.00
60244;BME280;46106;51.468;5.814;2023-12-14T01:42:13;100702.41;;;6.13;100.00
60244;BME280;46106;51.468;5.814;2023-12-14T01:44:39;100704.53;;;6.08;100.00
60244;BME280;46106;51.468;5.814;2023-12-14T01:47:08;100709.69;;;6.13;100.00
60244;BME280;46106;51.468;5.814;2023-12-14T01:49:33;100718.84;;;6.12;100.00
60244;BME280;46106;51.468;5.814;2023-12-14T01:51:59;100731.25;;;6.16;100.00
60244;BME280;46106;51.468;5.814;2023-12-14T01:54:24;100738.06;;;6.09;100.00
60244;BME280;46106;51.468;5.814;2023-12-14T01:56:51;100740.78;;;6.09;100.00
60244;BME280;46106;51.468;5.814;2023-12-14T01:59:16;100750.56;;;6.11;100.00
60244;BME280;46106;51.468;5.814;2023-12-14T02:01:44;100753.38;;;6.10;100.00
60244;BME280;46106;51.468;5.814;2023-12-14T02:04:12;100756.78;;;6.13;100.00
60244;BME280;46106;51.468;5.814;2023-12-14T02:06:41;100764.06;;;6.13;100.00
60244;BME280;46106;51.468;5.814;2023-12-14T02:09:07;100767.88;;;6.10;100.00
60244;BME280;46106;51.468;5.814;2023-12-14T02:11:33;100769.69;;;6.10;100.00
60244;BME280;46106;51.468;5.814;2023-12-14T02:14:03;100778.84;;;6.09;100.00
60244;BME280;46106;51.468;5.814;2023-12-14T02:16:29;100780.16;;;6.01;100.00
60244;BME280;46106;51.468;5.814;2023-12-14T02:18:54;100789.22;;;6.02;100.00
60244;BME280;46106;51.468;5.814;2023-12-14T02:21:23;100791.94;;;5.86;100.00
60244;BME280;46106;51.468;5.814;2023-12-14T02:23:50;100789.22;;;5.86;100.00
60244;BME280;46106;51.468;5.814;2023-12-14T02:26:15;100788.63;;;5.81;100.00
60244;BME280;46106;51.468;5.814;2023-12-14T02:28:41;100788.22;;;5.87;100.00
60244;BME280;46106;51.468;5.814;2023-12-14T02:31:06;100790.38;;;5.82;100.00
60244;BME280;46106;51.468;5.814;2023-12-14T02:33:33;100802.81;;;5.86;100.00
60244;BME280;46106;51.468;5.814;2023-12-14T02:36:09;100803.34;;;5.77;100.00
60244;BME280;46106;51.468;5.814;2023-12-14T02:38:35;100813.25;;;5.78;100.00
60244;BME280;46106;51.468;5.814;2023-12-14T02:41:01;100814.41;;;5.74;100.00
60244;BME280;46106;51.468;5.814;2023-12-14T02:43:29;100816.25;;;5.73;100.00
60244;BME280;46106;51.468;5.814;2023-12-14T02:45:55;100820.72;;;5.74;100.00
60244;BME280;46106;51.468;5.814;2023-12-14T02:48:31;100826.75;;;5.79;100.00
60244;BME280;46106;51.468;5.814;2023-12-14T02:50:56;100827.63;;;5.80;100.00
60244;BME280;46106;51.468;5.814;2023-12-14T02:53:22;100829.47;;;5.79;100.00
60244;BME280;46106;51.468;5.814;2023-12-14T02:55:49;100831.59;;;5.74;100.00
60244;BME280;46106;51.468;5.814;2023-12-14T02:58:15;100836.84;;;5.77;100.00
60244;BME280;46106;51.468;5.814;2023-12-14T03:00:40;100844.53;;;5.85;100.00
60244;BME280;46106;51.468;5.814;2023-12-14T03:03:06;100844.88;;;5.79;100.00
60244;BME280;46106;51.468;5.814;2023-12-14T03:05:34;100851.81;;;5.68;100.00
60244;BME280;46106;51.468;5.814;2023-12-14T03:07:59;100856.13;;;5.73;100.00
60244;BME280;46106;51.468;5.814;2023-12-14T03:10:25;100871.91;;;5.66;100.00
60244;BME280;46106;51.468;5.814;2023-12-14T03:12:51;100866.00;;;5.74;100.00
60244;BME280;46106;51.468;5.814;2023-12-14T03:15:18;100875.94;;;5.75;100.00
60244;BME280;46106;51.468;5.814;2023-12-14T03:17:44;100873.91;;;5.62;100.00
60244;BME280;46106;51.468;5.814;2023-12-14T03:20:10;100878.56;;;5.60;100.00
60244;BME280;46106;51.468;5.814;2023-12-14T03:22:41;100879.00;;;5.68;100.00
60244;BME280;46106;51.468;5.814;2023-12-14T03:25:10;100889.00;;;5.68;100.00
60244;BME280;46106;51.468;5.814;2023-12-14T03:27:35;100893.25;;;5.72;100.00
60244;BME280;46106;51.468;5.814;2023-12-14T03:30:01;100889.00;;;5.68;100.00
60244;BME280;46106;51.468;5.814;2023-12-14T03:32:26;100899.69;;;5.55;100.00
60244;BME280;46106;51.468;5.814;2023-12-14T03:34:51;100897.66;;;5.59;100.00
60244;BME280;46106;51.468;5.814;2023-12-14T03:37:17;100905.56;;;5.63;100.00
60244;BME280;46106;51.468;5.814;2023-12-14T03:39:42;100908.25;;;5.63;100.00
60244;BME280;46106;51.468;5.814;2023-12-14T03:42:08;100904.69;;;5.63;100.00
60244;BME280;46106;51.468;5.814;2023-12-14T03:44:33;100911.69;;;5.67;100.00
60244;BME280;46106;51.468;5.814;2023-12-14T03:46:58;100914.56;;;5.64;100.00
60244;BME280;46106;51.468;5.814;2023-12-14T03:49:25;100914.41;;;5.67;100.00
60244;BME280;46106;51.468;5.814;2023-12-14T03:51:50;100921.66;;;5.66;100.00
60244;BME280;46106;51.468;5.814;2023-12-14T03:54:16;100924.72;;;5.60;100.00
60244;BME280;46106;51.468;5.814;2023-12-14T03:56:41;100923.25;;;5.55;100.00
60244;BME280;46106;51.468;5.814;2023-12-14T03:59:07;100914.59;;;5.48;100.00
60244;BME280;46106;51.468;5.814;2023-12-14T04:01:32;100926.22;;;5.50;100.00
60244;BME280;46106;51.468;5.814;2023-12-14T04:03:58;100936.22;;;5.49;100.00
60244;BME280;46106;51.468;5.814;2023-12-14T04:06:24;100933.50;;;5.49;100.00
60244;BME280;46106;51.468;5.814;2023-12-14T04:08:49;100940.94;;;5.46;100.00
60244;BME280;46106;51.468;5.814;2023-12-14T04:11:14;100949.88;;;5.48;100.00
60244;BME280;46106;51.468;5.814;2023-12-14T04:13:40;100941.84;;;5.46;100.00
60244;BME280;46106;51.468;5.814;2023-12-14T04:16:06;100944.63;;;5.45;100.00
60244;BME280;46106;51.468;5.814;2023-12-14T04:18:31;100938.84;;;5.51;100.00
60244;BME280;46106;51.468;5.814;2023-12-14T04:20:57;100943.38;;;5.50;100.00
60244;BME280;46106;51.468;5.814;2023-12-14T04:23:22;100950.16;;;5.43;100.00
60244;BME280;46106;51.468;5.814;2023-12-14T04:25:48;100952.00;;;5.43;100.00
60244;BME280;46106;51.468;5.814;2023-12-14T04:28:13;100948.13;;;5.47;100.00
60244;BME280;46106;51.468;5.814;2023-12-14T04:30:38;100951.38;;;5.53;100.00
60244;BME280;46106;51.468;5.814;2023-12-14T04:33:04;100951.09;;;5.42;100.00
60244;BME280;46106;51.468;5.814;2023-12-14T04:35:29;100961.00;;;5.43;100.00
60244;BME280;46106;51.468;5.814;2023-12-14T04:37:56;100961.88;;;5.44;100.00
60244;BME280;46106;51.468;5.814;2023-12-14T04:40:21;100973.34;;;5.49;100.00
60244;BME280;46106;51.468;5.814;2023-12-14T04:42:47;100972.72;;;5.44;100.00
60244;BME280;46106;51.468;5.814;2023-12-14T04:45:12;100973.88;;;5.40;100.00
60244;BME280;46106;51.468;5.814;2023-12-14T04:47:38;100983.69;;;5.42;100.00
60244;BME280;46106;51.468;5.814;2023-12-14T04:50:04;100985.28;;;5.46;100.00
60244;BME280;46106;51.468;5.814;2023-12-14T04:52:29;100997.88;;;5.47;100.00
60244;BME280;46106;51.468;5.814;2023-12-14T04:54:55;101004.28;;;5.46;100.00
60244;BME280;46106;51.468;5.814;2023-12-14T04:57:20;101010.03;;;5.40;100.00
60244;BME280;46106;51.468;5.814;2023-12-14T04:59:46;101011.00;;;5.39;100.00
60244;BME280;46106;51.468;5.814;2023-12-14T05:02:11;101013.88;;;5.36;100.00
60244;BME280;46106;51.468;5.814;2023-12-14T05:04:37;101008.56;;;5.34;100.00
60244;BME280;46106;51.468;5.814;2023-12-14T05:07:02;101020.66;;;5.45;100.00
60244;BME280;46106;51.468;5.814;2023-12-14T05:09:27;101026.25;;;5.42;100.00
60244;BME280;46106;51.468;5.814;2023-12-14T05:11:53;101038.31;;;5.36;100.00
60244;BME280;46106;51.468;5.814;2023-12-14T05:14:18;101050.78;;;5.40;100.00
60244;BME280;46106;51.468;5.814;2023-12-14T05:16:44;101050.94;;;5.37;100.00
60244;BME280;46106;51.468;5.814;2023-12-14T05:19:09;101051.63;;;5.41;100.00
60244;BME280;46106;51.468;5.814;2023-12-14T05:21:35;101060.78;;;5.40;100.00
60244;BME280;46106;51.468;5.814;2023-12-14T05:24:01;101067.47;;;5.32;100.00
60244;BME280;46106;51.468;5.814;2023-12-14T05:26:26;101061.56;;;5.24;100.00
60244;BME280;46106;51.468;5.814;2023-12-14T05:28:51;101078.34;;;5.32;100.00
60244;BME280;46106;51.468;5.814;2023-12-14T05:31:17;101071.41;;;5.27;100.00
60244;BME280;46106;51.468;5.814;2023-12-14T05:33:43;101085.06;;;5.25;100.00
60244;BME280;46106;51.468;5.814;2023-12-14T05:36:08;101092.97;;;5.30;100.00
60244;BME280;46106;51.468;5.814;2023-12-14T05:38:38;101095.91;;;5.25;100.00
60244;BME280;46106;51.468;5.814;2023-12-14T05:41:03;101100.94;;;5.33;100.00
60244;BME280;46106;51.468;5.814;2023-12-14T05:43:29;101104.84;;;5.27;100.00
60244;BME280;46106;51.468;5.814;2023-12-14T05:45:54;101106.00;;;5.23;100.00
60244;BME280;46106;51.468;5.814;2023-12-14T05:48:19;101117.47;;;5.28;100.00
60244;BME280;46106;51.468;5.814;2023-12-14T05:50:45;101119.94;;;5.33;100.00
60244;BME280;46106;51.468;5.814;2023-12-14T05:53:10;101120.50;;;5.22;100.00
60244;BME280;46106;51.468;5.814;2023-12-14T05:55:36;101128.34;;;5.28;100.00
60244;BME280;46106;51.468;5.814;2023-12-14T05:58:01;101135.19;;;5.18;100.00
60244;BME280;46106;51.468;5.814;2023-12-14T06:00:26;101148.66;;;5.20;100.00
60244;BME280;46106;51.468;5.814;2023-12-14T06:02:52;101149.34;;;5.25;100.00
60244;BME280;46106;51.468;5.814;2023-12-14T06:05:17;101143.09;;;5.23;100.00
60244;BME280;46106;51.468;5.814;2023-12-14T06:07:44;101157.41;;;5.26;100.00
60244;BME280;46106;51.468;5.814;2023-12-14T06:10:09;101156.59;;;5.24;100.00
60244;BME280;46106;51.468;5.814;2023-12-14T06:12:36;101176.41;;;5.26;100.00
60244;BME280;46106;51.468;5.814;2023-12-14T06:15:03;101175.75;;;5.21;100.00
60244;BME280;46106;51.468;5.814;2023-12-14T06:17:28;101186.44;;;5.24;100.00
60244;BME280;46106;51.468;5.814;2023-12-14T06:19:59;101194.81;;;5.20;100.00
60244;BME280;46106;51.468;5.814;2023-12-14T06:22:26;101198.66;;;5.15;100.00
60244;BME280;46106;51.468;5.814;2023-12-14T06:24:51;101196.50;;;5.22;100.00
60244;BME280;46106;51.468;5.814;2023-12-14T06:27:17;101200.66;;;5.29;100.00
60244;BME280;46106;51.468;5.814;2023-12-14T06:29:44;101207.44;;;5.21;100.00
60244;BME280;46106;51.468;5.814;2023-12-14T06:32:10;101206.28;;;5.26;100.00
60244;BME280;46106;51.468;5.814;2023-12-14T06:34:35;101212.31;;;5.14;100.00
60244;BME280;46106;51.468;5.814;2023-12-14T06:37:01;101210.94;;;5.23;100.00
60244;BME280;46106;51.468;5.814;2023-12-14T06:39:28;101212.94;;;5.19;100.00
60244;BME280;46106;51.468;5.814;2023-12-14T06:41:54;101215.22;;;5.28;100.00
60244;BME280;46106;51.468;5.814;2023-12-14T06:44:20;101221.03;;;5.21;100.00
60244;BME280;46106;51.468;5.814;2023-12-14T06:46:46;101224.59;;;5.21;100.00
60244;BME280;46106;51.468;5.814;2023-12-14T06:49:11;101233.78;;;5.19;100.00
60244;BME280;46106;51.468;5.814;2023-12-14T06:51:37;101233.00;;;5.17;100.00
60244;BME280;46106;51.468;5.814;2023-12-14T06:54:05;101237.38;;;5.19;100.00
60244;BME280;46106;51.468;5.814;2023-12-14T06:56:36;101239.69;;;5.09;100.00
60244;BME280;46106;51.468;5.814;2023-12-14T06:59:01;101235.03;;;5.11;100.00
60244;BME280;46106;51.468;5.814;2023-12-14T07:01:27;101239.81;;;5.06;100.00
60244;BME280;46106;51.468;5.814;2023-12-14T07:03:53;101242.38;;;5.09;100.00
60244;BME280;46106;51.468;5.814;2023-12-14T07:06:19;101232.25;;;5.13;100.00
60244;BME280;46106;51.468;5.814;2023-12-14T07:08:46;101237.53;;;5.16;100.00
60244;BME280;46106;51.468;5.814;2023-12-14T07:11:16;101242.00;;;5.17;100.00
60244;BME280;46106;51.468;5.814;2023-12-14T07:13:45;101254.94;;;5.12;100.00
60244;BME280;46106;51.468;5.814;2023-12-14T07:16:12;101261.00;;;5.17;100.00
60244;BME280;46106;51.468;5.814;2023-12-14T07:18:41;101263.50;;;5.22;100.00
60244;BME280;46106;51.468;5.814;2023-12-14T07:21:08;101273.47;;;5.21;100.00
60244;BME280;46106;51.468;5.814;2023-12-14T07:23:35;101279.03;;;5.18;100.00
60244;BME280;46106;51.468;5.814;2023-12-14T07:26:01;101282.88;;;5.14;100.00
60244;BME280;46106;51.468;5.814;2023-12-14T07:28:26;101290.94;;;5.15;100.00
60244;BME280;46106;51.468;5.814;2023-12-14T07:30:53;101291.38;;;5.25;100.00
60244;BME280;46106;51.468;5.814;2023-12-14T07:33:19;101297.25;;;5.16;100.00
60244;BME280;46106;51.468;5.814;2023-12-14T07:35:44;101305.38;;;5.16;100.00
60244;BME280;46106;51.468;5.814;2023-12-14T07:38:10;101306.38;;;5.15;100.00
60244;BME280;46106;51.468;5.814;2023-12-14T07:40:39;101303.47;;;5.18;100.00
60244;BME280;46106;51.468;5.814;2023-12-14T07:43:06;101314.59;;;5.13;100.00
60244;BME280;46106;51.468;5.814;2023-12-14T07:45:32;101316.47;;;5.11;100.00
60244;BME280;46106;51.468;5.814;2023-12-14T07:47:58;101320.22;;;5.09;100.00
60244;BME280;46106;51.468;5.814;2023-12-14T07:50:25;101331.72;;;5.14;100.00
60244;BME280;46106;51.468;5.814;2023-12-14T07:52:54;101335.38;;;5.13;100.00
60244;BME280;46106;51.468;5.814;2023-12-14T07:55:21;101340.75;;;5.14;100.00
60244;BME280;46106;51.468;5.814;2023-12-14T07:57:46;101355.22;;;5.15;100.00
60244;BME280;46106;51.468;5.814;2023-12-14T08:00:16;101362.53;;;5.13;100.00
60244;BME280;46106;51.468;5.814;2023-12-14T08:02:43;101364.16;;;5.17;100.00
60244;BME280;46106;51.468;5.814;2023-12-14T08:05:08;101370.69;;;5.13;100.00
60244;BME280;46106;51.468;5.814;2023-12-14T08:07:37;101371.50;;;5.15;100.00
60244;BME280;46106;51.468;5.814;2023-12-14T08:10:03;101378.59;;;5.18;100.00
60244;BME280;46106;51.468;5.814;2023-12-14T08:12:28;101380.44;;;5.17;100.00
60244;BME280;46106;51.468;5.814;2023-12-14T08:14:55;101394.09;;;5.15;100.00
60244;BME280;46106;51.468;5.814;2023-12-14T08:17:20;101400.47;;;5.14;100.00
60244;BME280;46106;51.468;5.814;2023-12-14T08:19:46;101401.50;;;5.12;100.00
60244;BME280;46106;51.468;5.814;2023-12-14T08:22:13;101404.28;;;5.10;100.00
60244;BME280;46106;51.468;5.814;2023-12-14T08:24:43;101407.94;;;5.09;100.00
60244;BME280;46106;51.468;5.814;2023-12-14T08:27:26;101412.66;;;5.06;100.00
60244;BME280;46106;51.468;5.814;2023-12-14T08:29:52;101414.41;;;5.07;100.00
60244;BME280;46106;51.468;5.814;2023-12-14T08:32:20;101421.59;;;5.08;100.00
60244;BME280;46106;51.468;5.814;2023-12-14T08:34:45;101424.31;;;5.08;100.00
60244;BME280;46106;51.468;5.814;2023-12-14T08:37:12;101425.22;;;5.08;100.00
60244;BME280;46106;51.468;5.814;2023-12-14T08:39:38;101427.81;;;5.10;100.00
60244;BME280;46106;51.468;5.814;2023-12-14T08:42:03;101420.66;;;5.09;100.00
60244;BME280;46106;51.468;5.814;2023-12-14T08:44:31;101435.53;;;5.19;100.00
60244;BME280;46106;51.468;5.814;2023-12-14T08:46:58;101435.47;;;5.21;100.00
60244;BME280;46106;51.468;5.814;2023-12-14T08:49:24;101431.16;;;5.17;100.00
60244;BME280;46106;51.468;5.814;2023-12-14T08:51:51;101433.03;;;5.14;100.00
60244;BME280;46106;51.468;5.814;2023-12-14T08:54:17;101442.00;;;5.17;100.00
60244;BME280;46106;51.468;5.814;2023-12-14T08:56:45;101444.03;;;5.11;100.00
60244;BME280;46106;51.468;5.814;2023-12-14T08:59:10;101454.81;;;5.13;100.00
60244;BME280;46106;51.468;5.814;2023-12-14T09:01:38;101458.06;;;5.02;100.00
60244;BME280;46106;51.468;5.814;2023-12-14T09:04:04;101463.03;;;5.11;100.00
60244;BME280;46106;51.468;5.814;2023-12-14T09:06:31;101470.50;;;5.06;100.00
60244;BME280;46106;51.468;5.814;2023-12-14T09:08:56;101477.72;;;5.07;100.00
60244;BME280;46106;51.468;5.814;2023-12-14T09:11:23;101477.25;;;4.97;100.00
60244;BME280;46106;51.468;5.814;2023-12-14T09:13:48;101487.09;;;5.00;100.00
60244;BME280;46106;51.468;5.814;2023-12-14T09:16:15;101490.47;;;5.05;100.00
60244;BME280;46106;51.468;5.814;2023-12-14T09:18:41;101502.34;;;5.03;100.00
60244;BME280;46106;51.468;5.814;2023-12-14T09:21:08;101510.63;;;5.00;100.00
60244;BME280;46106;51.468;5.814;2023-12-14T09:23:33;101510.81;;;4.95;100.00
60244;BME280;46106;51.468;5.814;2023-12-14T09:26:01;101512.25;;;5.04;100.00
60244;BME280;46106;51.468;5.814;2023-12-14T09:28:26;101524.78;;;5.06;100.00
60244;BME280;46106;51.468;5.814;2023-12-14T09:30:52;101517.03;;;4.99;100.00
60244;BME280;46106;51.468;5.814;2023-12-14T09:33:19;101515.63;;;5.09;100.00
60244;BME280;46106;51.468;5.814;2023-12-14T09:35:45;101520.34;;;5.05;100.00
60244;BME280;46106;51.468;5.814;2023-12-14T09:38:11;101520.25;;;5.07;100.00
60244;BME280;46106;51.468;5.814;2023-12-14T09:40:41;101521.00;;;5.10;100.00
60244;BME280;46106;51.468;5.814;2023-12-14T09:43:07;101527.22;;;5.12;100.00
60244;BME280;46106;51.468;5.814;2023-12-14T09:45:34;101528.25;;;5.10;100.00
60244;BME280;46106;51.468;5.814;2023-12-14T09:48:03;101541.22;;;5.03;100.00
60244;BME280;46106;51.468;5.814;2023-12-14T09:50:30;101545.56;;;5.07;100.00
60244;BME280;46106;51.468;5.814;2023-12-14T09:52:57;101552.59;;;5.11;100.00
60244;BME280;46106;51.468;5.814;2023-12-14T09:55:23;101553.38;;;5.15;100.00
60244;BME280;46106;51.468;5.814;2023-12-14T09:57:49;101561.84;;;5.07;100.00
60244;BME280;46106;51.468;5.814;2023-12-14T10:00:40;101561.66;;;5.12;100.00
60244;BME280;46106;51.468;5.814;2023-12-14T10:03:21;101560.53;;;5.16;100.00
60244;BME280;46106;51.468;5.814;2023-12-14T10:05:47;101573.97;;;5.19;100.00
60244;BME280;46106;51.468;5.814;2023-12-14T10:08:17;101570.72;;;5.11;100.00
60244;BME280;46106;51.468;5.814;2023-12-14T10:10:43;101565.31;;;5.11;100.00
60244;BME280;46106;51.468;5.814;2023-12-14T10:13:10;101574.91;;;5.18;100.00
60244;BME280;46106;51.468;5.814;2023-12-14T10:15:46;101577.09;;;5.10;100.00
60244;BME280;46106;51.468;5.814;2023-12-14T10:18:21;101591.69;;;5.07;100.00
60244;BME280;46106;51.468;5.814;2023-12-14T10:20:48;101597.94;;;5.09;100.00
60244;BME280;46106;51.468;5.814;2023-12-14T10:23:14;101600.03;;;5.03;100.00
60244;BME280;46106;51.468;5.814;2023-12-14T10:25:39;101605.41;;;5.04;100.00
60244;BME280;46106;51.468;5.814;2023-12-14T10:28:05;101602.81;;;5.01;100.00
60244;BME280;46106;51.468;5.814;2023-12-14T10:30:31;101611.28;;;4.93;100.00
60244;BME280;46106;51.468;5.814;2023-12-14T10:32:56;101617.69;;;4.92;100.00
60244;BME280;46106;51.468;5.814;2023-12-14T10:35:23;101616.22;;;4.84;100.00
60244;BME280;46106;51.468;5.814;2023-12-14T10:37:52;101625.00;;;4.90;100.00
60244;BME280;46106;51.468;5.814;2023-12-14T10:40:19;101630.63;;;4.86;100.00
60244;BME280;46106;51.468;5.814;2023-12-14T10:42:47;101633.97;;;4.92;100.00
60244;BME280;46106;51.468;5.814;2023-12-14T10:45:15;101635.72;;;4.93;100.00
60244;BME280;46106;51.468;5.814;2023-12-14T10:47:44;101633.84;;;4.95;100.00
60244;BME280;46106;51.468;5.814;2023-12-14T10:50:10;101629.22;;;4.97;100.00
60244;BME280;46106;51.468;5.814;2023-12-14T10:52:41;101628.75;;;5.08;100.00
60244;BME280;46106;51.468;5.814;2023-12-14T10:55:43;101633.53;;;5.02;100.00
60244;BME280;46106;51.468;5.814;2023-12-14T10:58:11;101640.94;;;4.98;100.00
60244;BME280;46106;51.468;5.814;2023-12-14T11:00:38;101639.06;;;5.00;100.00
60244;BME280;46106;51.468;5.814;2023-12-14T11:03:05;101636.56;;;4.95;100.00
60244;BME280;46106;51.468;5.814;2023-12-14T11:05:36;101633.53;;;5.02;100.00
60244;BME280;46106;51.468;5.814;2023-12-14T11:08:04;101634.09;;;5.10;100.00
60244;BME280;46106;51.468;5.814;2023-12-14T11:10:40;101636.41;;;4.99;100.00
60244;BME280;46106;51.468;5.814;2023-12-14T11:13:11;101637.63;;;4.91;100.00
60244;BME280;46106;51.468;5.814;2023-12-14T11:15:41;101636.47;;;4.97;100.00
60244;BME280;46106;51.468;5.814;2023-12-14T11:20:49;101643.06;;;5.12;100.00
60244;BME280;46106;51.468;5.814;2023-12-14T11:23:28;101656.97;;;5.04;100.00
60244;BME280;46106;51.468;5.814;2023-12-14T11:26:00;101655.19;;;5.03;100.00
60244;BME280;46106;51.468;5.814;2023-12-14T11:28:34;101662.72;;;4.96;100.00
60244;BME280;46106;51.468;5.814;2023-12-14T11:31:00;101665.31;;;5.00;100.00
60244;BME280;46106;51.468;5.814;2023-12-14T11:33:28;101670.13;;;4.93;100.00
60244;BME280;46106;51.468;5.814;2023-12-14T11:35:54;101671.47;;;5.03;100.00
60244;BME280;46106;51.468;5.814;2023-12-14T11:38:22;101670.47;;;5.06;100.00
60244;BME280;46106;51.468;5.814;2023-12-14T11:40:49;101675.41;;;4.96;100.00
60244;BME280;46106;51.468;5.814;2023-12-14T11:43:18;101679.13;;;4.93;100.00
60244;BME280;46106;51.468;5.814;2023-12-14T11:45:46;101678.94;;;4.98;100.00
60244;BME280;46106;51.468;5.814;2023-12-14T11:48:12;101675.34;;;4.97;100.00
60244;BME280;46106;51.468;5.814;2023-12-14T11:50:41;101680.59;;;5.02;100.00
60244;BME280;46106;51.468;5.814;2023-12-14T11:53:09;101690.69;;;4.99;100.00
60244;BME280;46106;51.468;5.814;2023-12-14T11:55:37;101685.09;;;5.02;100.00
60244;BME280;46106;51.468;5.814;2023-12-14T11:58:06;101689.72;;;5.00;100.00
60244;BME280;46106;51.468;5.814;2023-12-14T12:00:33;101683.44;;;4.99;100.00
60244;BME280;46106;51.468;5.814;2023-12-14T12:03:17;101683.50;;;4.97;100.00
60244;BME280;46106;51.468;5.814;2023-12-14T12:05:50;101681.47;;;5.03;100.00
60244;BME280;46106;51.468;5.814;2023-12-14T12:08:20;101693.00;;;5.08;100.00
60244;BME280;46106;51.468;5.814;2023-12-14T12:10:47;101693.41;;;4.99;100.00
60244;BME280;46106;51.468;5.814;2023-12-14T12:13:15;101695.47;;;4.92;100.00
60244;BME280;46106;51.468;5.814;2023-12-14T12:15:42;101704.31;;;4.97;100.00
60244;BME280;46106;51.468;5.814;2023-12-14T12:18:09;101701.38;;;5.02;100.00
60244;BME280;46106;51.468;5.814;2023-12-14T12:20:35;101703.66;;;5.12;100.00
60244;BME280;46106;51.468;5.814;2023-12-14T12:23:01;101705.69;;;5.07;100.00
60244;BME280;46106;51.468;5.814;2023-12-14T12:25:27;101697.75;;;5.03;100.00
60244;BME280;46106;51.468;5.814;2023-12-14T12:27:54;101693.44;;;5.19;100.00
60244;BME280;46106;51.468;5.814;2023-12-14T12:30:21;101699.03;;;5.14;100.00
60244;BME280;46106;51.468;5.814;2023-12-14T12:32:46;101693.38;;;5.21;100.00
60244;BME280;46106;51.468;5.814;2023-12-14T12:35:12;101692.34;;;5.23;100.00
60244;BME280;46106;51.468;5.814;2023-12-14T12:37:40;101696.81;;;5.24;100.00
60244;BME280;46106;51.468;5.814;2023-12-14T12:40:07;101694.16;;;5.23;100.00
60244;BME280;46106;51.468;5.814;2023-12-14T12:42:33;101692.13;;;5.28;100.00
60244;BME280;46106;51.468;5.814;2023-12-14T12:44:59;101697.59;;;5.48;100.00
60244;BME280;46106;51.468;5.814;2023-12-14T12:47:26;101704.94;;;5.46;100.00
60244;BME280;46106;51.468;5.814;2023-12-14T12:49:52;101711.44;;;5.42;100.00